createdAt,value
2023-01-04T00:02:02.897Z,4.60
2023-01-04T00:05:05.880Z,4.50
2023-01-04T00:07:35.454Z,4.50
2023-01-04T00:10:03.844Z,4.50
2023-01-04T00:12:31.974Z,4.50
2023-01-04T00:15:00.184Z,4.40
2023-01-04T00:17:34.741Z,4.40
2023-01-04T00:20:02.689Z,4.40
2023-01-04T00:22:33.776Z,4.40
2023-01-04T00:25:03.827Z,4.40
2023-01-04T00:27:31.979Z,4.40
2023-01-04T00:30:00.010Z,4.30
2023-01-04T00:32:55.255Z,4.40
2023-01-04T00:35:44.575Z,4.20
2023-01-04T00:38:11.700Z,4.30
2023-01-04T00:40:43.627Z,4.20
2023-01-04T00:43:11.530Z,4.10
2023-01-04T00:45:47.251Z,4.10
2023-01-04T00:48:15.402Z,4.10
2023-01-04T00:50:44.971Z,4.10
2023-01-04T00:53:13.964Z,4.10
2023-01-04T00:55:43.465Z,4.20
2023-01-04T00:58:11.672Z,4.20
2023-01-04T01:00:40.141Z,4.20
2023-01-04T01:03:08.110Z,4.20
2023-01-04T01:05:36.956Z,4.10
2023-01-04T01:08:24.533Z,4.10
2023-01-04T01:10:54.203Z,4.20
2023-01-04T01:13:23.159Z,4.10
2023-01-04T01:16:57.567Z,4.20
2023-01-04T01:19:27.444Z,4.20
2023-01-04T01:21:56.904Z,4.10
2023-01-04T01:24:24.949Z,4.10
2023-01-04T01:26:54.732Z,4.10
2023-01-04T01:29:22.664Z,4.10
2023-01-04T01:31:50.692Z,4.00
2023-01-04T01:34:18.664Z,4.00
2023-01-04T01:36:46.586Z,4.00
2023-01-04T01:39:14.550Z,3.90
2023-01-04T01:41:42.948Z,3.90
2023-01-04T01:44:45.138Z,3.80
2023-01-04T01:47:16.415Z,3.80
2023-01-04T01:49:45.849Z,3.90
2023-01-04T01:52:17.619Z,3.80
2023-01-04T01:54:48.895Z,3.80
2023-01-04T01:57:20.598Z,3.70
2023-01-04T01:59:51.377Z,3.70
2023-01-04T02:06:28.539Z,3.60
2023-01-04T02:08:56.959Z,3.70
2023-01-04T02:11:24.961Z,3.70
2023-01-04T02:14:10.641Z,3.70
2023-01-04T02:16:56.278Z,3.70
2023-01-04T02:19:41.755Z,3.70
2023-01-04T02:22:44.162Z,3.70
2023-01-04T02:25:38.799Z,3.70
2023-01-04T02:28:16.995Z,3.70
2023-01-04T02:31:17.660Z,3.80
2023-01-04T02:33:52.660Z,3.80
2023-01-04T02:37:03.521Z,3.80
2023-01-04T02:40:11.231Z,3.80
2023-01-04T02:43:13.787Z,3.80
2023-01-04T02:45:50.425Z,3.80
2023-01-04T02:48:38.505Z,3.80
2023-01-04T02:51:06.738Z,3.80
2023-01-04T02:53:39.014Z,3.80
2023-01-04T02:56:18.129Z,3.80
2023-01-04T02:59:01.875Z,3.80
2023-01-04T03:01:59.271Z,3.80
2023-01-04T03:04:58.216Z,3.70
2023-01-04T03:07:33.817Z,3.70
2023-01-04T03:10:08.311Z,3.60
2023-01-04T03:12:44.503Z,3.60
2023-01-04T03:15:18.113Z,3.60
2023-01-04T03:17:50.451Z,3.60
2023-01-04T03:20:21.715Z,3.60
2023-01-04T03:26:26.808Z,3.70
2023-01-04T03:29:32.140Z,3.70
2023-01-04T03:32:23.040Z,3.70
2023-01-04T03:43:54.603Z,3.80
2023-01-04T03:46:51.223Z,3.90
2023-01-04T03:49:46.698Z,3.80
2023-01-04T03:52:34.395Z,3.80
2023-01-04T03:55:04.564Z,3.70
2023-01-04T03:58:15.896Z,3.70
2023-01-04T04:00:46.937Z,3.70
2023-01-04T04:03:24.147Z,3.60
2023-01-04T04:06:09.630Z,3.60
2023-01-04T04:08:37.509Z,3.60
2023-01-04T04:11:19.557Z,3.70
2023-01-04T04:13:47.992Z,3.70
2023-01-04T04:16:17.981Z,3.70
2023-01-04T04:19:04.575Z,3.70
2023-01-04T04:21:36.126Z,3.70
2023-01-04T04:24:04.032Z,3.60
2023-01-04T04:26:47.088Z,3.60
2023-01-04T04:29:41.952Z,3.60
2023-01-04T04:32:26.270Z,3.50
2023-01-04T04:34:54.133Z,3.60
2023-01-04T04:37:21.985Z,3.60
2023-01-04T04:39:49.806Z,3.70
2023-01-04T04:42:16.832Z,3.70
2023-01-04T05:26:54.298Z,4.40
2023-01-04T05:29:40.833Z,4.50
2023-01-04T05:32:08.903Z,4.60
2023-01-04T05:34:37.104Z,4.60
2023-01-04T05:37:05.293Z,4.70
2023-01-04T05:39:33.287Z,4.70
2023-01-04T05:42:28.484Z,4.80
2023-01-04T05:44:59.601Z,4.90
2023-01-04T05:47:47.445Z,4.90
2023-01-04T05:50:15.371Z,5.10
2023-01-04T05:53:35.125Z,5.10
2023-01-04T05:56:03.069Z,5.10
2023-01-04T05:58:30.981Z,5.20
2023-01-04T06:01:00.394Z,5.30
2023-01-04T06:03:28.631Z,5.40
2023-01-04T06:05:56.634Z,5.40
2023-01-04T06:08:41.765Z,5.50
2023-01-04T06:11:33.936Z,5.60
2023-01-04T06:14:01.904Z,5.60
2023-01-04T06:17:08.412Z,5.80
2023-01-04T06:19:36.970Z,5.70
2023-01-04T06:22:05.256Z,5.80
2023-01-04T06:25:01.209Z,5.90
2023-01-04T06:27:29.189Z,6.00
2023-01-04T06:29:57.239Z,6.00
2023-01-04T06:32:26.617Z,6.00
2023-01-04T06:37:54.350Z,6.20
2023-01-04T06:40:22.390Z,6.20
2023-01-04T06:42:50.382Z,6.30
2023-01-04T06:45:18.487Z,6.30
2023-01-04T06:47:48.931Z,6.40
2023-01-04T06:53:57.890Z,6.50
2023-01-04T06:56:25.812Z,6.70
2023-01-04T06:58:53.825Z,6.70
2023-01-04T07:05:14.929Z,6.80
2023-01-04T07:08:08.376Z,7.00
2023-01-04T07:10:36.657Z,7.00
2023-01-04T07:13:34.769Z,7.10
2023-01-04T07:16:02.955Z,7.20
2023-01-04T07:18:44.232Z,7.20
2023-01-04T07:21:13.642Z,7.30
2023-01-04T07:23:41.689Z,7.30
2023-01-04T07:26:09.695Z,7.30
2023-01-04T07:28:55.199Z,7.40
2023-01-04T07:42:30.183Z,7.60
2023-01-04T07:44:58.371Z,7.70
2023-01-04T07:47:26.348Z,7.70
2023-01-04T07:49:54.601Z,7.70
2023-01-04T07:52:22.621Z,7.80
2023-01-04T07:54:53.886Z,7.90
2023-01-04T07:57:21.846Z,7.80
2023-01-04T07:59:51.798Z,7.90
2023-01-04T08:02:26.096Z,8.00
2023-01-04T08:04:54.235Z,8.00
2023-01-04T08:07:22.274Z,8.00
2023-01-04T08:09:51.012Z,8.00
2023-01-04T08:12:19.038Z,8.00
2023-01-04T08:14:47.140Z,8.10
2023-01-04T08:17:16.529Z,8.10
2023-01-04T08:19:46.783Z,8.10
2023-01-04T08:22:15.536Z,8.10
2023-01-04T08:24:43.866Z,8.20
2023-01-04T08:27:12.069Z,8.20
2023-01-04T08:29:39.959Z,8.20
2023-01-04T08:32:08.126Z,8.20
2023-01-04T08:34:37.424Z,8.30
2023-01-04T08:37:05.315Z,8.30
2023-01-04T08:39:36.029Z,8.40
2023-01-04T08:42:20.943Z,8.40
2023-01-04T08:44:57.246Z,8.40
2023-01-04T08:47:52.843Z,8.50
2023-01-04T08:50:22.238Z,8.50
2023-01-04T08:53:31.847Z,8.50
2023-01-04T08:56:00.881Z,8.50
2023-01-04T08:58:29.803Z,8.60
2023-01-04T14:49:12.263Z,12.10
2023-01-04T14:52:49.858Z,12.10
2023-01-04T14:55:19.360Z,12.20
2023-01-04T14:57:47.437Z,12.10
2023-01-04T15:00:19.428Z,12.10
2023-01-04T15:02:50.782Z,12.10
2023-01-04T15:05:20.098Z,12.10
2023-01-04T15:07:48.432Z,12.10
2023-01-04T15:10:23.493Z,12.10
2023-01-04T15:12:51.639Z,12.10
2023-01-04T15:15:19.646Z,12.10
2023-01-04T15:17:48.164Z,12.20
2023-01-04T15:20:16.240Z,12.20
2023-01-04T15:22:44.513Z,12.10
2023-01-04T15:25:12.868Z,12.10
2023-01-04T15:27:43.012Z,12.10
2023-01-04T15:30:13.647Z,12.10
2023-01-04T15:32:42.013Z,12.10
2023-01-04T15:35:11.005Z,12.10
2023-01-04T15:37:38.894Z,12.10
2023-01-04T15:40:07.794Z,12.10
2023-01-04T15:42:53.296Z,12.10
2023-01-04T15:45:23.886Z,12.10
2023-01-04T15:47:52.237Z,12.10
2023-01-04T16:10:46.011Z,12.10
2023-01-04T16:13:14.038Z,12.10
2023-01-04T16:15:42.021Z,12.10
2023-01-04T16:18:10.756Z,12.10
2023-01-04T16:20:42.676Z,12.10
2023-01-04T16:23:10.594Z,12.10
2023-01-04T16:25:53.402Z,12.10
2023-01-04T16:28:36.152Z,12.00
2023-01-04T16:31:05.181Z,12.00
2023-01-04T16:33:33.357Z,12.00
2023-01-04T16:36:05.531Z,12.00
2023-01-04T16:38:36.399Z,12.00
2023-01-04T16:41:05.835Z,12.00
2023-01-04T16:43:44.444Z,11.90
2023-01-04T16:46:20.451Z,12.00
2023-01-04T16:48:50.461Z,11.90
2023-01-04T16:51:18.730Z,11.90
2023-01-04T16:53:46.753Z,11.90
2023-01-04T16:56:16.873Z,11.80
2023-01-04T16:58:48.144Z,11.80
2023-01-04T17:01:18.253Z,11.70
2023-01-04T17:03:47.718Z,11.70
2023-01-04T17:06:17.860Z,11.70
2023-01-04T17:08:47.056Z,11.70
2023-01-04T17:12:04.993Z,11.60
2023-01-04T17:14:06.847Z,11.60
2023-01-04T17:16:35.425Z,11.60
2023-01-04T17:19:03.785Z,11.60
2023-01-04T17:21:34.784Z,11.60
2023-01-04T17:39:43.735Z,11.40
2023-01-04T17:42:11.771Z,11.30
2023-01-04T17:44:40.282Z,11.30
2023-01-04T17:47:08.323Z,11.30
2023-01-04T17:49:38.607Z,11.20
2023-01-04T17:52:08.850Z,11.20
2023-01-04T17:54:37.324Z,11.10
2023-01-04T17:57:16.923Z,11.10
2023-01-04T17:59:44.979Z,11.00
2023-01-04T18:02:13.286Z,11.00
2023-01-04T18:04:43.231Z,11.00
2023-01-04T18:09:39.478Z,10.90
2023-01-04T18:12:08.948Z,10.80
2023-01-04T18:14:36.927Z,10.80
2023-01-04T18:17:06.053Z,10.80
2023-01-04T18:19:34.021Z,10.90
2023-01-04T18:22:02.223Z,10.80
2023-01-04T18:24:36.756Z,10.70
2023-01-04T18:27:24.477Z,10.70
2023-01-04T18:29:56.288Z,10.70
2023-01-04T18:32:25.702Z,10.60
2023-01-04T18:34:53.783Z,10.70
2023-01-04T18:37:21.968Z,10.60
2023-01-04T18:39:50.148Z,10.60
2023-01-04T18:42:18.406Z,10.60
2023-01-04T18:44:48.936Z,10.70
2023-01-04T18:47:20.854Z,10.70
2023-01-04T18:49:49.014Z,10.60
2023-01-04T18:52:17.879Z,10.70
2023-01-04T18:54:47.624Z,10.70
2023-01-04T18:57:16.323Z,10.70
2023-01-04T18:59:44.370Z,10.70
2023-01-04T19:02:17.743Z,10.80
2023-01-04T19:04:47.313Z,10.80
2023-01-04T19:07:15.551Z,10.80
2023-01-04T19:09:46.523Z,10.80
2023-01-04T19:12:14.479Z,10.80
2023-01-04T19:14:42.694Z,10.90
2023-01-04T19:17:11.242Z,10.90
2023-01-04T19:19:39.303Z,11.00
2023-01-04T19:22:08.668Z,10.90
2023-01-04T19:24:36.682Z,11.00
2023-01-04T19:27:05.231Z,10.90
2023-01-04T19:29:33.945Z,10.90
2023-01-04T19:32:01.913Z,10.90
2023-01-04T19:34:29.842Z,10.90
2023-01-04T19:36:57.725Z,10.90
2023-01-04T19:39:27.128Z,10.90
2023-01-04T19:41:54.955Z,11.00
2023-01-04T19:44:22.959Z,11.00
2023-01-04T19:46:50.990Z,10.90
2023-01-04T19:49:18.932Z,10.90
2023-01-04T19:51:48.843Z,10.90
2023-01-04T19:54:24.515Z,10.90
2023-01-04T19:56:55.377Z,11.00
2023-01-04T19:59:23.504Z,11.00
2023-01-04T20:01:51.621Z,11.10
2023-01-04T20:04:20.363Z,11.10
2023-01-04T20:06:48.418Z,11.10
2023-01-04T20:09:18.334Z,11.20
2023-01-04T20:11:46.327Z,11.10
2023-01-04T20:14:15.912Z,11.20
2023-01-04T20:16:43.772Z,11.20
2023-01-04T20:19:11.699Z,11.20
2023-01-04T20:21:39.540Z,11.20
2023-01-04T20:24:08.076Z,11.30
2023-01-04T20:26:36.041Z,11.40
2023-01-04T20:29:04.507Z,11.40
2023-01-04T20:31:34.897Z,11.40
2023-01-04T20:34:03.246Z,11.50
2023-01-04T20:36:31.346Z,11.50
2023-01-04T20:39:00.108Z,11.60
2023-01-04T20:41:29.402Z,11.50
2023-01-04T20:43:56.279Z,11.60
2023-01-04T20:46:27.055Z,11.60
2023-01-04T20:48:56.595Z,11.60
2023-01-04T20:51:27.850Z,11.60
2023-01-04T20:53:58.638Z,11.70
2023-01-04T20:56:28.431Z,11.70
2023-01-04T20:58:57.203Z,11.70
2023-01-04T21:01:25.607Z,11.70
2023-01-04T21:03:53.975Z,11.70
2023-01-04T21:06:24.780Z,11.70
2023-01-04T21:08:55.030Z,11.70
2023-01-04T21:11:23.800Z,11.80
2023-01-04T21:13:52.481Z,11.80
2023-01-04T21:21:27.189Z,11.90
2023-01-04T23:45:48.483Z,11.90
2023-01-04T23:48:16.381Z,11.90
2023-01-04T23:50:44.478Z,11.90
